sensor_id;sensor_type;location;lat;lon;timestamp;P1;durP1;ratioP1;P2;durP2;ratioP2
79543;SDS011;68994;47.176;7.534;2023-06-04T00:00:17;7.88;;;6.05;;
79543;SDS011;68994;47.176;7.534;2023-06-04T00:02:44;6.82;;;5.95;;
79543;SDS011;68994;47.176;7.534;2023-06-04T00:05:11;8.77;;;6.25;;
79543;SDS011;68994;47.176;7.534;2023-06-04T00:07:38;6.50;;;5.85;;
79543;SDS011;68994;47.176;7.534;2023-06-04T00:10:05;7.88;;;6.32;;
79543;SDS011;68994;47.176;7.534;2023-06-04T00:12:33;8.52;;;5.97;;
79543;SDS011;68994;47.176;7.534;2023-06-04T00:15:00;6.55;;;5.32;;
79543;SDS011;68994;47.176;7.534;2023-06-04T00:17:27;6.57;;;5.15;;
79543;SDS011;68994;47.176;7.534;2023-06-04T00:19:54;6.38;;;5.50;;
79543;SDS011;68994;47.176;7.534;2023-06-04T00:22:20;8.30;;;6.00;;
79543;SDS011;68994;47.176;7.534;2023-06-04T00:24:47;7.20;;;6.18;;
79543;SDS011;68994;47.176;7.534;2023-06-04T00:27:13;9.00;;;6.53;;
79543;SDS011;68994;47.176;7.534;2023-06-04T00:29:44;7.97;;;6.32;;
79543;SDS011;68994;47.176;7.534;2023-06-04T00:32:11;6.32;;;5.50;;
79543;SDS011;68994;47.176;7.534;2023-06-04T00:34:38;7.70;;;6.10;;
79543;SDS011;68994;47.176;7.534;2023-06-04T00:37:05;6.70;;;5.45;;
79543;SDS011;68994;47.176;7.534;2023-06-04T00:39:32;6.25;;;5.65;;
79543;SDS011;68994;47.176;7.534;2023-06-04T00:41:59;9.15;;;5.63;;
79543;SDS011;68994;47.176;7.534;2023-06-04T00:44:26;8.75;;;5.70;;
79543;SDS011;68994;47.176;7.534;2023-06-04T00:46:54;8.10;;;6.38;;
79543;SDS011;68994;47.176;7.534;2023-06-04T00:49:21;7.15;;;6.10;;
79543;SDS011;68994;47.176;7.534;2023-06-04T00:51:48;7.60;;;6.72;;
79543;SDS011;68994;47.176;7.534;2023-06-04T00:54:15;7.03;;;5.80;;
79543;SDS011;68994;47.176;7.534;2023-06-04T00:56:43;7.43;;;5.32;;
79543;SDS011;68994;47.176;7.534;2023-06-04T00:59:10;7.05;;;5.55;;
79543;SDS011;68994;47.176;7.534;2023-06-04T01:01:39;7.50;;;6.55;;
79543;SDS011;68994;47.176;7.534;2023-06-04T01:04:14;8.05;;;7.22;;
79543;SDS011;68994;47.176;7.534;2023-06-04T01:06:45;9.60;;;6.95;;
79543;SDS011;68994;47.176;7.534;2023-06-04T01:09:15;8.45;;;6.13;;
79543;SDS011;68994;47.176;7.534;2023-06-04T01:11:42;6.57;;;5.22;;
79543;SDS011;68994;47.176;7.534;2023-06-04T01:14:09;7.07;;;6.10;;
79543;SDS011;68994;47.176;7.534;2023-06-04T01:16:37;7.43;;;6.35;;
79543;SDS011;68994;47.176;7.534;2023-06-04T01:19:11;7.70;;;6.35;;
79543;SDS011;68994;47.176;7.534;2023-06-04T01:21:57;7.78;;;6.05;;
79543;SDS011;68994;47.176;7.534;2023-06-04T01:24:29;9.57;;;6.80;;
79543;SDS011;68994;47.176;7.534;2023-06-04T01:27:01;7.03;;;6.13;;
79543;SDS011;68994;47.176;7.534;2023-06-04T01:29:30;8.23;;;6.80;;
79543;SDS011;68994;47.176;7.534;2023-06-04T01:31:57;11.15;;;7.07;;
79543;SDS011;68994;47.176;7.534;2023-06-04T01:36:53;8.52;;;5.78;;
79543;SDS011;68994;47.176;7.534;2023-06-04T01:39:19;7.22;;;6.32;;
79543;SDS011;68994;47.176;7.534;2023-06-04T01:41:46;8.50;;;6.57;;
79543;SDS011;68994;47.176;7.534;2023-06-04T01:44:13;8.27;;;7.43;;
79543;SDS011;68994;47.176;7.534;2023-06-04T01:46:40;10.40;;;7.13;;
79543;SDS011;68994;47.176;7.534;2023-06-04T01:49:07;10.43;;;7.05;;
79543;SDS011;68994;47.176;7.534;2023-06-04T01:51:35;7.40;;;5.30;;
79543;SDS011;68994;47.176;7.534;2023-06-04T01:54:02;8.95;;;7.10;;
79543;SDS011;68994;47.176;7.534;2023-06-04T01:56:29;7.57;;;6.78;;
79543;SDS011;68994;47.176;7.534;2023-06-04T01:58:55;9.25;;;6.75;;
79543;SDS011;68994;47.176;7.534;2023-06-04T02:01:22;8.68;;;5.95;;
79543;SDS011;68994;47.176;7.534;2023-06-04T02:03:49;7.60;;;6.32;;
79543;SDS011;68994;47.176;7.534;2023-06-04T02:06:15;7.55;;;5.80;;
79543;SDS011;68994;47.176;7.534;2023-06-04T02:08:44;9.23;;;7.30;;
79543;SDS011;68994;47.176;7.534;2023-06-04T02:11:10;8.00;;;6.88;;
79543;SDS011;68994;47.176;7.534;2023-06-04T02:13:37;9.63;;;8.23;;
79543;SDS011;68994;47.176;7.534;2023-06-04T02:16:04;7.75;;;6.95;;
79543;SDS011;68994;47.176;7.534;2023-06-04T02:18:31;10.65;;;6.93;;
79543;SDS011;68994;47.176;7.534;2023-06-04T02:20:58;10.77;;;7.50;;
79543;SDS011;68994;47.176;7.534;2023-06-04T02:23:24;8.52;;;7.57;;
79543;SDS011;68994;47.176;7.534;2023-06-04T02:25:52;7.30;;;6.43;;
79543;SDS011;68994;47.176;7.534;2023-06-04T02:28:19;8.93;;;7.10;;
79543;SDS011;68994;47.176;7.534;2023-06-04T02:30:46;8.00;;;6.68;;
79543;SDS011;68994;47.176;7.534;2023-06-04T02:33:13;9.02;;;8.00;;
79543;SDS011;68994;47.176;7.534;2023-06-04T02:35:41;10.10;;;7.68;;
79543;SDS011;68994;47.176;7.534;2023-06-04T02:38:07;8.52;;;6.88;;
79543;SDS011;68994;47.176;7.534;2023-06-04T02:40:34;7.85;;;7.15;;
79543;SDS011;68994;47.176;7.534;2023-06-04T02:43:02;10.27;;;7.43;;
79543;SDS011;68994;47.176;7.534;2023-06-04T02:45:29;11.13;;;7.25;;
79543;SDS011;68994;47.176;7.534;2023-06-04T02:50:23;10.07;;;7.68;;
79543;SDS011;68994;47.176;7.534;2023-06-04T02:52:50;9.52;;;7.90;;
79543;SDS011;68994;47.176;7.534;2023-06-04T02:55:16;7.43;;;6.30;;
79543;SDS011;68994;47.176;7.534;2023-06-04T02:57:43;7.57;;;5.53;;
79543;SDS011;68994;47.176;7.534;2023-06-04T03:00:12;8.05;;;5.57;;
79543;SDS011;68994;47.176;7.534;2023-06-04T03:02:41;8.25;;;6.38;;
79543;SDS011;68994;47.176;7.534;2023-06-04T03:05:10;8.32;;;7.53;;
79543;SDS011;68994;47.176;7.534;2023-06-04T03:07:38;7.75;;;6.28;;
79543;SDS011;68994;47.176;7.534;2023-06-04T03:12:33;9.20;;;6.38;;
79543;SDS011;68994;47.176;7.534;2023-06-04T03:14:59;8.27;;;6.20;;
79543;SDS011;68994;47.176;7.534;2023-06-04T03:17:27;8.45;;;6.85;;
79543;SDS011;68994;47.176;7.534;2023-06-04T03:19:55;8.35;;;6.88;;
79543;SDS011;68994;47.176;7.534;2023-06-04T03:22:22;8.35;;;6.60;;
79543;SDS011;68994;47.176;7.534;2023-06-04T03:24:48;8.73;;;7.82;;
79543;SDS011;68994;47.176;7.534;2023-06-04T03:27:17;9.00;;;7.43;;
79543;SDS011;68994;47.176;7.534;2023-06-04T03:29:44;8.55;;;6.72;;
79543;SDS011;68994;47.176;7.534;2023-06-04T03:32:10;8.52;;;6.30;;
79543;SDS011;68994;47.176;7.534;2023-06-04T03:34:39;10.38;;;7.68;;
79543;SDS011;68994;47.176;7.534;2023-06-04T03:37:06;9.70;;;7.10;;
79543;SDS011;68994;47.176;7.534;2023-06-04T03:39:32;9.20;;;5.80;;
79543;SDS011;68994;47.176;7.534;2023-06-04T03:41:59;8.38;;;6.57;;
79543;SDS011;68994;47.176;7.534;2023-06-04T03:44:26;7.55;;;6.15;;
79543;SDS011;68994;47.176;7.534;2023-06-04T03:46:53;8.52;;;6.82;;
79543;SDS011;68994;47.176;7.534;2023-06-04T03:49:19;8.52;;;7.13;;
79543;SDS011;68994;47.176;7.534;2023-06-04T03:51:48;11.00;;;6.80;;
79543;SDS011;68994;47.176;7.534;2023-06-04T03:54:15;7.47;;;6.03;;
79543;SDS011;68994;47.176;7.534;2023-06-04T03:56:43;7.32;;;5.57;;
79543;SDS011;68994;47.176;7.534;2023-06-04T03:59:10;8.05;;;6.80;;
79543;SDS011;68994;47.176;7.534;2023-06-04T04:01:37;8.07;;;7.15;;
79543;SDS011;68994;47.176;7.534;2023-06-04T04:04:04;11.18;;;7.43;;
79543;SDS011;68994;47.176;7.534;2023-06-04T04:06:31;8.30;;;5.95;;
79543;SDS011;68994;47.176;7.534;2023-06-04T04:08:59;7.30;;;6.07;;
79543;SDS011;68994;47.176;7.534;2023-06-04T04:11:25;8.73;;;6.30;;
79543;SDS011;68994;47.176;7.534;2023-06-04T04:13:52;7.88;;;6.90;;
79543;SDS011;68994;47.176;7.534;2023-06-04T04:16:19;8.10;;;5.57;;
79543;SDS011;68994;47.176;7.534;2023-06-04T04:18:45;8.88;;;6.90;;
79543;SDS011;68994;47.176;7.534;2023-06-04T04:21:12;7.93;;;5.95;;
79543;SDS011;68994;47.176;7.534;2023-06-04T04:23:39;8.57;;;7.45;;
79543;SDS011;68994;47.176;7.534;2023-06-04T04:26:07;7.93;;;5.63;;
79543;SDS011;68994;47.176;7.534;2023-06-04T04:28:35;6.85;;;5.88;;
79543;SDS011;68994;47.176;7.534;2023-06-04T04:31:02;8.55;;;6.80;;
79543;SDS011;68994;47.176;7.534;2023-06-04T04:33:29;7.97;;;6.05;;
79543;SDS011;68994;47.176;7.534;2023-06-04T04:36:04;7.93;;;6.72;;
79543;SDS011;68994;47.176;7.534;2023-06-04T04:38:34;8.48;;;6.07;;
79543;SDS011;68994;47.176;7.534;2023-06-04T04:41:01;8.18;;;7.30;;
79543;SDS011;68994;47.176;7.534;2023-06-04T04:43:29;8.55;;;7.07;;
79543;SDS011;68994;47.176;7.534;2023-06-04T04:45:57;6.65;;;5.93;;
79543;SDS011;68994;47.176;7.534;2023-06-04T04:48:24;6.53;;;5.75;;
79543;SDS011;68994;47.176;7.534;2023-06-04T04:50:51;9.60;;;6.57;;
79543;SDS011;68994;47.176;7.534;2023-06-04T04:53:17;8.77;;;5.75;;
79543;SDS011;68994;47.176;7.534;2023-06-04T04:55:44;8.05;;;6.15;;
79543;SDS011;68994;47.176;7.534;2023-06-04T04:58:11;8.68;;;6.28;;
79543;SDS011;68994;47.176;7.534;2023-06-04T05:00:41;7.63;;;6.82;;
79543;SDS011;68994;47.176;7.534;2023-06-04T05:03:08;7.95;;;6.65;;
79543;SDS011;68994;47.176;7.534;2023-06-04T05:05:35;9.73;;;6.45;;
79543;SDS011;68994;47.176;7.534;2023-06-04T05:08:01;8.07;;;6.72;;
79543;SDS011;68994;47.176;7.534;2023-06-04T05:10:28;8.10;;;6.68;;
79543;SDS011;68994;47.176;7.534;2023-06-04T05:12:55;11.75;;;7.20;;
79543;SDS011;68994;47.176;7.534;2023-06-04T05:15:23;8.30;;;7.18;;
79543;SDS011;68994;47.176;7.534;2023-06-04T05:17:53;10.45;;;7.13;;
79543;SDS011;68994;47.176;7.534;2023-06-04T05:20:21;8.95;;;7.47;;
79543;SDS011;68994;47.176;7.534;2023-06-04T05:22:48;11.35;;;7.32;;
79543;SDS011;68994;47.176;7.534;2023-06-04T05:25:16;10.63;;;7.40;;
79543;SDS011;68994;47.176;7.534;2023-06-04T05:27:43;7.57;;;6.70;;
79543;SDS011;68994;47.176;7.534;2023-06-04T05:30:10;10.60;;;7.30;;
79543;SDS011;68994;47.176;7.534;2023-06-04T05:32:38;8.13;;;7.10;;
79543;SDS011;68994;47.176;7.534;2023-06-04T05:35:07;8.70;;;5.82;;
79543;SDS011;68994;47.176;7.534;2023-06-04T05:37:35;9.73;;;7.15;;
79543;SDS011;68994;47.176;7.534;2023-06-04T05:40:03;9.75;;;7.22;;
79543;SDS011;68994;47.176;7.534;2023-06-04T05:42:32;8.38;;;6.93;;
79543;SDS011;68994;47.176;7.534;2023-06-04T05:44:58;9.07;;;7.50;;
79543;SDS011;68994;47.176;7.534;2023-06-04T05:47:26;8.43;;;7.25;;
79543;SDS011;68994;47.176;7.534;2023-06-04T05:49:54;9.00;;;7.93;;
79543;SDS011;68994;47.176;7.534;2023-06-04T05:52:23;10.35;;;7.15;;
79543;SDS011;68994;47.176;7.534;2023-06-04T05:54:49;8.82;;;7.20;;
79543;SDS011;68994;47.176;7.534;2023-06-04T05:57:16;8.50;;;7.22;;
79543;SDS011;68994;47.176;7.534;2023-06-04T05:59:42;7.57;;;6.78;;
79543;SDS011;68994;47.176;7.534;2023-06-04T06:02:10;8.20;;;7.00;;
79543;SDS011;68994;47.176;7.534;2023-06-04T06:04:37;9.32;;;6.57;;
79543;SDS011;68994;47.176;7.534;2023-06-04T06:07:03;9.45;;;6.55;;
79543;SDS011;68994;47.176;7.534;2023-06-04T06:09:31;7.75;;;6.22;;
79543;SDS011;68994;47.176;7.534;2023-06-04T06:11:58;9.25;;;6.07;;
79543;SDS011;68994;47.176;7.534;2023-06-04T06:14:25;6.97;;;5.72;;
79543;SDS011;68994;47.176;7.534;2023-06-04T06:16:51;9.00;;;7.10;;
79543;SDS011;68994;47.176;7.534;2023-06-04T06:19:19;9.00;;;6.75;;
79543;SDS011;68994;47.176;7.534;2023-06-04T06:21:45;8.38;;;6.93;;
79543;SDS011;68994;47.176;7.534;2023-06-04T06:24:12;10.65;;;6.15;;
79543;SDS011;68994;47.176;7.534;2023-06-04T06:26:40;9.18;;;7.50;;
79543;SDS011;68994;47.176;7.534;2023-06-04T06:29:07;8.52;;;7.30;;
79543;SDS011;68994;47.176;7.534;2023-06-04T06:31:34;9.13;;;6.90;;
79543;SDS011;68994;47.176;7.534;2023-06-04T06:34:00;10.93;;;6.57;;
79543;SDS011;68994;47.176;7.534;2023-06-04T06:36:27;8.13;;;7.32;;
79543;SDS011;68994;47.176;7.534;2023-06-04T06:38:54;8.70;;;7.20;;
79543;SDS011;68994;47.176;7.534;2023-06-04T06:41:20;8.98;;;7.25;;
79543;SDS011;68994;47.176;7.534;2023-06-04T06:43:48;8.35;;;7.28;;
79543;SDS011;68994;47.176;7.534;2023-06-04T06:46:15;8.85;;;7.30;;
79543;SDS011;68994;47.176;7.534;2023-06-04T06:48:42;7.45;;;6.45;;
79543;SDS011;68994;47.176;7.534;2023-06-04T06:51:10;9.05;;;6.85;;
79543;SDS011;68994;47.176;7.534;2023-06-04T06:53:37;7.60;;;6.13;;
79543;SDS011;68994;47.176;7.534;2023-06-04T06:56:04;9.43;;;7.38;;
79543;SDS011;68994;47.176;7.534;2023-06-04T06:58:31;8.35;;;6.72;;
79543;SDS011;68994;47.176;7.534;2023-06-04T07:00:59;7.82;;;7.00;;
79543;SDS011;68994;47.176;7.534;2023-06-04T07:03:25;10.80;;;7.30;;
79543;SDS011;68994;47.176;7.534;2023-06-04T07:05:53;11.73;;;7.38;;
79543;SDS011;68994;47.176;7.534;2023-06-04T07:08:20;8.80;;;7.32;;
79543;SDS011;68994;47.176;7.534;2023-06-04T07:10:46;8.38;;;7.20;;
79543;SDS011;68994;47.176;7.534;2023-06-04T07:13:13;9.13;;;7.25;;
79543;SDS011;68994;47.176;7.534;2023-06-04T07:15:43;12.60;;;7.25;;
79543;SDS011;68994;47.176;7.534;2023-06-04T07:18:11;9.82;;;7.68;;
79543;SDS011;68994;47.176;7.534;2023-06-04T07:20:38;8.65;;;7.75;;
79543;SDS011;68994;47.176;7.534;2023-06-04T07:23:04;7.75;;;6.95;;
79543;SDS011;68994;47.176;7.534;2023-06-04T07:25:32;10.23;;;8.27;;
79543;SDS011;68994;47.176;7.534;2023-06-04T07:27:58;11.23;;;7.35;;
79543;SDS011;68994;47.176;7.534;2023-06-04T07:30:28;8.27;;;7.47;;
79543;SDS011;68994;47.176;7.534;2023-06-04T07:32:55;8.80;;;7.80;;
79543;SDS011;68994;47.176;7.534;2023-06-04T07:35:24;8.80;;;6.15;;
79543;SDS011;68994;47.176;7.534;2023-06-04T07:37:50;9.25;;;7.10;;
79543;SDS011;68994;47.176;7.534;2023-06-04T07:40:17;8.30;;;6.82;;
79543;SDS011;68994;47.176;7.534;2023-06-04T07:42:44;9.35;;;8.13;;
79543;SDS011;68994;47.176;7.534;2023-06-04T07:45:12;10.27;;;7.10;;
79543;SDS011;68994;47.176;7.534;2023-06-04T07:47:38;8.00;;;7.00;;
79543;SDS011;68994;47.176;7.534;2023-06-04T07:50:07;9.38;;;8.15;;
79543;SDS011;68994;47.176;7.534;2023-06-04T07:55:02;11.23;;;7.55;;
79543;SDS011;68994;47.176;7.534;2023-06-04T07:57:30;11.20;;;7.90;;
79543;SDS011;68994;47.176;7.534;2023-06-04T07:59:56;9.35;;;7.97;;
79543;SDS011;68994;47.176;7.534;2023-06-04T08:02:24;10.13;;;7.10;;
79543;SDS011;68994;47.176;7.534;2023-06-04T08:04:51;13.65;;;8.65;;
79543;SDS011;68994;47.176;7.534;2023-06-04T08:07:17;11.68;;;8.52;;
79543;SDS011;68994;47.176;7.534;2023-06-04T08:09:45;13.13;;;9.50;;
79543;SDS011;68994;47.176;7.534;2023-06-04T08:12:12;12.55;;;9.93;;
79543;SDS011;68994;47.176;7.534;2023-06-04T08:14:38;13.27;;;8.57;;
79543;SDS011;68994;47.176;7.534;2023-06-04T08:17:06;11.20;;;7.38;;
79543;SDS011;68994;47.176;7.534;2023-06-04T08:19:33;12.63;;;9.88;;
79543;SDS011;68994;47.176;7.534;2023-06-04T08:21:59;16.13;;;9.07;;
79543;SDS011;68994;47.176;7.534;2023-06-04T08:24:26;12.15;;;9.27;;
79543;SDS011;68994;47.176;7.534;2023-06-04T08:26:54;14.38;;;9.88;;
79543;SDS011;68994;47.176;7.534;2023-06-04T08:29:20;11.15;;;8.10;;
79543;SDS011;68994;47.176;7.534;2023-06-04T08:31:47;10.63;;;8.80;;
79543;SDS011;68994;47.176;7.534;2023-06-04T08:34:14;13.25;;;8.93;;
79543;SDS011;68994;47.176;7.534;2023-06-04T08:36:43;10.30;;;8.32;;
79543;SDS011;68994;47.176;7.534;2023-06-04T08:39:10;8.85;;;7.95;;
79543;SDS011;68994;47.176;7.534;2023-06-04T08:41:38;8.77;;;7.30;;
79543;SDS011;68994;47.176;7.534;2023-06-04T08:44:10;12.30;;;7.97;;
79543;SDS011;68994;47.176;7.534;2023-06-04T08:46:37;10.05;;;8.27;;
79543;SDS011;68994;47.176;7.534;2023-06-04T08:49:06;10.07;;;7.53;;
79543;SDS011;68994;47.176;7.534;2023-06-04T08:51:34;10.60;;;8.30;;
79543;SDS011;68994;47.176;7.534;2023-06-04T08:54:03;10.85;;;8.15;;
79543;SDS011;68994;47.176;7.534;2023-06-04T08:56:30;10.63;;;7.32;;
79543;SDS011;68994;47.176;7.534;2023-06-04T08:58:59;10.07;;;7.55;;
79543;SDS011;68994;47.176;7.534;2023-06-04T09:01:28;7.93;;;7.10;;
79543;SDS011;68994;47.176;7.534;2023-06-04T09:03:56;8.77;;;7.13;;
79543;SDS011;68994;47.176;7.534;2023-06-04T09:06:24;10.18;;;7.95;;
79543;SDS011;68994;47.176;7.534;2023-06-04T09:08:52;7.15;;;6.28;;
79543;SDS011;68994;47.176;7.534;2023-06-04T09:11:22;8.57;;;7.00;;
79543;SDS011;68994;47.176;7.534;2023-06-04T09:13:52;10.30;;;7.20;;
79543;SDS011;68994;47.176;7.534;2023-06-04T09:16:21;9.02;;;7.13;;
79543;SDS011;68994;47.176;7.534;2023-06-04T09:18:48;8.35;;;7.13;;
79543;SDS011;68994;47.176;7.534;2023-06-04T09:21:16;9.88;;;7.32;;
79543;SDS011;68994;47.176;7.534;2023-06-04T09:23:44;8.35;;;6.65;;
79543;SDS011;68994;47.176;7.534;2023-06-04T09:28:39;7.90;;;6.80;;
79543;SDS011;68994;47.176;7.534;2023-06-04T09:31:07;7.93;;;6.53;;
79543;SDS011;68994;47.176;7.534;2023-06-04T09:33:41;7.22;;;6.40;;
79543;SDS011;68994;47.176;7.534;2023-06-04T09:36:10;6.75;;;6.03;;
79543;SDS011;68994;47.176;7.534;2023-06-04T09:38:37;10.57;;;6.47;;
79543;SDS011;68994;47.176;7.534;2023-06-04T09:41:10;8.10;;;7.10;;
79543;SDS011;68994;47.176;7.534;2023-06-04T09:43:37;7.43;;;6.05;;
79543;SDS011;68994;47.176;7.534;2023-06-04T09:46:10;7.18;;;6.15;;
79543;SDS011;68994;47.176;7.534;2023-06-04T09:48:38;7.28;;;6.32;;
79543;SDS011;68994;47.176;7.534;2023-06-04T09:51:06;7.10;;;6.45;;
79543;SDS011;68994;47.176;7.534;2023-06-04T09:53:35;7.60;;;6.72;;
79543;SDS011;68994;47.176;7.534;2023-06-04T09:56:03;7.38;;;6.45;;
79543;SDS011;68994;47.176;7.534;2023-06-04T09:58:31;8.48;;;7.45;;
79543;SDS011;68994;47.176;7.534;2023-06-04T10:00:59;6.85;;;6.00;;
79543;SDS011;68994;47.176;7.534;2023-06-04T10:03:29;8.02;;;6.90;;
79543;SDS011;68994;47.176;7.534;2023-06-04T10:05:58;6.80;;;6.20;;
79543;SDS011;68994;47.176;7.534;2023-06-04T10:08:26;9.85;;;5.95;;
79543;SDS011;68994;47.176;7.534;2023-06-04T10:10:56;7.40;;;6.60;;
79543;SDS011;68994;47.176;7.534;2023-06-04T10:13:26;10.25;;;5.78;;
79543;SDS011;68994;47.176;7.534;2023-06-04T10:15:54;9.63;;;6.20;;
79543;SDS011;68994;47.176;7.534;2023-06-04T10:18:23;8.88;;;6.00;;
79543;SDS011;68994;47.176;7.534;2023-06-04T10:20:50;9.25;;;6.18;;
79543;SDS011;68994;47.176;7.534;2023-06-04T10:23:19;6.90;;;5.47;;
79543;SDS011;68994;47.176;7.534;2023-06-04T10:25:47;7.00;;;6.20;;
79543;SDS011;68994;47.176;7.534;2023-06-04T10:28:19;8.18;;;6.13;;
79543;SDS011;68994;47.176;7.534;2023-06-04T10:30:46;7.25;;;5.97;;
79543;SDS011;68994;47.176;7.534;2023-06-04T10:33:15;8.25;;;6.35;;
79543;SDS011;68994;47.176;7.534;2023-06-04T10:35:42;7.28;;;5.97;;
79543;SDS011;68994;47.176;7.534;2023-06-04T10:40:37;6.32;;;5.63;;
79543;SDS011;68994;47.176;7.534;2023-06-04T10:43:04;13.65;;;6.18;;
79543;SDS011;68994;47.176;7.534;2023-06-04T10:45:33;5.90;;;5.28;;
79543;SDS011;68994;47.176;7.534;2023-06-04T10:48:00;6.68;;;4.65;;
79543;SDS011;68994;47.176;7.534;2023-06-04T10:50:27;5.95;;;5.35;;
79543;SDS011;68994;47.176;7.534;2023-06-04T10:52:55;7.13;;;4.97;;
79543;SDS011;68994;47.176;7.534;2023-06-04T10:55:23;6.85;;;5.78;;
79543;SDS011;68994;47.176;7.534;2023-06-04T10:57:51;5.82;;;5.20;;
79543;SDS011;68994;47.176;7.534;2023-06-04T11:00:18;7.85;;;5.93;;
79543;SDS011;68994;47.176;7.534;2023-06-04T11:02:51;6.97;;;5.53;;
79543;SDS011;68994;47.176;7.534;2023-06-04T11:05:20;8.93;;;5.72;;
79543;SDS011;68994;47.176;7.534;2023-06-04T11:07:47;6.30;;;5.20;;
79543;SDS011;68994;47.176;7.534;2023-06-04T11:10:15;8.45;;;6.25;;
79543;SDS011;68994;47.176;7.534;2023-06-04T11:12:44;7.55;;;5.57;;
79543;SDS011;68994;47.176;7.534;2023-06-04T11:15:11;5.45;;;4.93;;
79543;SDS011;68994;47.176;7.534;2023-06-04T11:17:48;8.98;;;5.70;;
79543;SDS011;68994;47.176;7.534;2023-06-04T11:20:17;7.68;;;5.95;;
79543;SDS011;68994;47.176;7.534;2023-06-04T11:22:50;6.15;;;5.47;;
79543;SDS011;68994;47.176;7.534;2023-06-04T11:25:21;7.20;;;5.45;;
79543;SDS011;68994;47.176;7.534;2023-06-04T11:27:47;6.45;;;5.85;;
79543;SDS011;68994;47.176;7.534;2023-06-04T11:30:15;6.72;;;4.85;;
79543;SDS011;68994;47.176;7.534;2023-06-04T11:32:42;6.00;;;4.95;;
79543;SDS011;68994;47.176;7.534;2023-06-04T11:35:09;8.63;;;5.03;;
79543;SDS011;68994;47.176;7.534;2023-06-04T11:37:38;6.15;;;4.95;;
79543;SDS011;68994;47.176;7.534;2023-06-04T11:40:15;5.75;;;4.95;;
79543;SDS011;68994;47.176;7.534;2023-06-04T11:42:43;6.00;;;5.40;;
79543;SDS011;68994;47.176;7.534;2023-06-04T11:45:11;6.88;;;5.47;;
79543;SDS011;68994;47.176;7.534;2023-06-04T11:47:39;6.22;;;5.63;;
79543;SDS011;68994;47.176;7.534;2023-06-04T11:50:07;6.38;;;5.20;;
79543;SDS011;68994;47.176;7.534;2023-06-04T11:52:35;7.32;;;5.20;;
79543;SDS011;68994;47.176;7.534;2023-06-04T11:55:04;7.05;;;4.85;;
79543;SDS011;68994;47.176;7.534;2023-06-04T11:57:34;6.15;;;5.07;;
79543;SDS011;68994;47.176;7.534;2023-06-04T12:00:02;5.97;;;5.25;;
79543;SDS011;68994;47.176;7.534;2023-06-04T12:02:34;7.90;;;5.07;;
79543;SDS011;68994;47.176;7.534;2023-06-04T12:05:10;7.15;;;6.38;;
79543;SDS011;68994;47.176;7.534;2023-06-04T12:07:38;6.20;;;4.90;;
79543;SDS011;68994;47.176;7.534;2023-06-04T12:10:05;8.20;;;5.60;;
79543;SDS011;68994;47.176;7.534;2023-06-04T12:12:33;7.65;;;5.95;;
79543;SDS011;68994;47.176;7.534;2023-06-04T12:15:00;6.32;;;5.60;;
79543;SDS011;68994;47.176;7.534;2023-06-04T12:17:27;6.68;;;5.53;;
79543;SDS011;68994;47.176;7.534;2023-06-04T12:19:53;7.13;;;5.82;;
79543;SDS011;68994;47.176;7.534;2023-06-04T12:22:21;7.18;;;5.07;;
79543;SDS011;68994;47.176;7.534;2023-06-04T12:24:49;8.30;;;5.38;;
79543;SDS011;68994;47.176;7.534;2023-06-04T12:27:19;7.25;;;5.53;;
79543;SDS011;68994;47.176;7.534;2023-06-04T12:29:54;7.38;;;5.78;;
79543;SDS011;68994;47.176;7.534;2023-06-04T12:32:21;7.28;;;4.82;;
79543;SDS011;68994;47.176;7.534;2023-06-04T12:34:48;5.90;;;4.78;;
79543;SDS011;68994;47.176;7.534;2023-06-04T12:37:15;8.18;;;5.22;;
79543;SDS011;68994;47.176;7.534;2023-06-04T12:39:41;7.00;;;5.47;;
79543;SDS011;68994;47.176;7.534;2023-06-04T12:42:09;8.40;;;5.68;;
79543;SDS011;68994;47.176;7.534;2023-06-04T12:44:36;5.95;;;5.22;;
79543;SDS011;68994;47.176;7.534;2023-06-04T12:47:05;7.28;;;5.43;;
79543;SDS011;68994;47.176;7.534;2023-06-04T12:49:32;6.93;;;5.72;;
79543;SDS011;68994;47.176;7.534;2023-06-04T12:51:59;6.25;;;5.43;;
79543;SDS011;68994;47.176;7.534;2023-06-04T12:54:26;6.03;;;5.43;;
79543;SDS011;68994;47.176;7.534;2023-06-04T12:56:53;6.60;;;5.88;;
79543;SDS011;68994;47.176;7.534;2023-06-04T12:59:22;8.20;;;5.65;;
79543;SDS011;68994;47.176;7.534;2023-06-04T13:01:50;5.63;;;4.80;;
79543;SDS011;68994;47.176;7.534;2023-06-04T13:04:17;9.10;;;5.72;;
79543;SDS011;68994;47.176;7.534;2023-06-04T13:06:43;11.82;;;5.88;;
79543;SDS011;68994;47.176;7.534;2023-06-04T13:09:11;6.65;;;4.75;;
79543;SDS011;68994;47.176;7.534;2023-06-04T13:11:39;6.25;;;5.47;;
79543;SDS011;68994;47.176;7.534;2023-06-04T13:14:07;7.40;;;5.05;;
79543;SDS011;68994;47.176;7.534;2023-06-04T13:16:35;7.57;;;5.13;;
79543;SDS011;68994;47.176;7.534;2023-06-04T13:19:02;7.57;;;5.47;;
79543;SDS011;68994;47.176;7.534;2023-06-04T13:21:29;6.47;;;5.32;;
79543;SDS011;68994;47.176;7.534;2023-06-04T13:23:55;7.78;;;5.38;;
79543;SDS011;68994;47.176;7.534;2023-06-04T13:26:22;8.23;;;5.53;;
79543;SDS011;68994;47.176;7.534;2023-06-04T13:28:49;7.20;;;4.63;;
79543;SDS011;68994;47.176;7.534;2023-06-04T13:31:15;5.78;;;4.63;;
79543;SDS011;68994;47.176;7.534;2023-06-04T13:33:43;7.13;;;5.30;;
79543;SDS011;68994;47.176;7.534;2023-06-04T13:36:10;5.88;;;4.80;;
79543;SDS011;68994;47.176;7.534;2023-06-04T13:38:37;6.22;;;4.97;;
79543;SDS011;68994;47.176;7.534;2023-06-04T13:41:03;7.93;;;5.43;;
79543;SDS011;68994;47.176;7.534;2023-06-04T13:43:30;5.90;;;5.18;;
79543;SDS011;68994;47.176;7.534;2023-06-04T13:45:56;8.05;;;4.68;;
79543;SDS011;68994;47.176;7.534;2023-06-04T13:48:23;6.03;;;4.95;;
79543;SDS011;68994;47.176;7.534;2023-06-04T13:50:51;7.40;;;5.93;;
79543;SDS011;68994;47.176;7.534;2023-06-04T13:53:18;6.47;;;5.03;;
79543;SDS011;68994;47.176;7.534;2023-06-04T13:55:44;7.35;;;5.10;;
79543;SDS011;68994;47.176;7.534;2023-06-04T13:58:11;7.25;;;5.07;;
79543;SDS011;68994;47.176;7.534;2023-06-04T14:00:39;9.18;;;5.72;;
79543;SDS011;68994;47.176;7.534;2023-06-04T14:03:06;7.55;;;5.47;;
79543;SDS011;68994;47.176;7.534;2023-06-04T14:05:33;5.82;;;4.55;;
79543;SDS011;68994;47.176;7.534;2023-06-04T14:08:01;7.05;;;5.35;;
79543;SDS011;68994;47.176;7.534;2023-06-04T14:10:28;5.20;;;4.68;;
79543;SDS011;68994;47.176;7.534;2023-06-04T14:12:54;5.82;;;5.13;;
79543;SDS011;68994;47.176;7.534;2023-06-04T14:15:21;6.10;;;4.85;;
79543;SDS011;68994;47.176;7.534;2023-06-04T14:17:47;7.82;;;5.38;;
79543;SDS011;68994;47.176;7.534;2023-06-04T14:20:14;6.47;;;5.50;;
79543;SDS011;68994;47.176;7.534;2023-06-04T14:22:41;6.35;;;5.20;;
79543;SDS011;68994;47.176;7.534;2023-06-04T14:25:09;6.80;;;4.85;;
79543;SDS011;68994;47.176;7.534;2023-06-04T14:27:36;7.43;;;5.60;;
79543;SDS011;68994;47.176;7.534;2023-06-04T14:30:03;7.22;;;5.22;;
79543;SDS011;68994;47.176;7.534;2023-06-04T14:32:31;6.05;;;5.00;;
79543;SDS011;68994;47.176;7.534;2023-06-04T14:34:58;7.38;;;5.47;;
79543;SDS011;68994;47.176;7.534;2023-06-04T14:37:25;6.72;;;5.30;;
79543;SDS011;68994;47.176;7.534;2023-06-04T14:39:52;7.57;;;5.07;;
79543;SDS011;68994;47.176;7.534;2023-06-04T14:42:20;5.88;;;4.53;;
79543;SDS011;68994;47.176;7.534;2023-06-04T14:44:46;6.45;;;5.35;;
79543;SDS011;68994;47.176;7.534;2023-06-04T14:47:13;8.50;;;5.40;;
79543;SDS011;68994;47.176;7.534;2023-06-04T14:49:40;8.13;;;5.93;;
79543;SDS011;68994;47.176;7.534;2023-06-04T14:52:07;7.07;;;4.60;;
79543;SDS011;68994;47.176;7.534;2023-06-04T14:57:00;7.65;;;4.88;;
79543;SDS011;68994;47.176;7.534;2023-06-04T14:59:29;6.55;;;5.00;;
79543;SDS011;68994;47.176;7.534;2023-06-04T15:01:56;5.78;;;4.72;;
79543;SDS011;68994;47.176;7.534;2023-06-04T15:04:23;7.60;;;5.38;;